createdAt,value
2019-06-01T00:00:16.867Z,18.90
2019-06-01T00:04:24.284Z,18.93
2019-06-01T00:08:29.980Z,18.90
2019-06-01T00:12:35.677Z,18.82
2019-06-01T00:16:41.994Z,18.82
2019-06-01T00:20:48.646Z,18.72
2019-06-01T00:24:54.366Z,18.76
2019-06-01T00:29:00.240Z,18.72
2019-06-01T00:33:06.053Z,18.72
2019-06-01T00:37:11.808Z,18.64
2019-06-01T00:41:17.485Z,18.67
2019-06-01T00:45:23.296Z,18.65
2019-06-01T00:49:29.071Z,18.63
2019-06-01T00:53:34.750Z,18.62
2019-06-01T00:57:40.411Z,18.50
2019-06-01T01:01:46.191Z,18.54
2019-06-01T01:05:52.749Z,18.49
2019-06-01T01:09:58.418Z,18.39
2019-06-01T01:14:05.791Z,18.33
2019-06-01T01:18:12.976Z,18.25
2019-06-01T01:22:18.769Z,18.18
2019-06-01T01:26:24.482Z,18.21
2019-06-01T01:30:30.290Z,18.29
2019-06-01T01:34:35.974Z,18.27
2019-06-01T01:38:41.666Z,18.23
2019-06-01T01:42:48.643Z,18.18
2019-06-01T01:46:54.909Z,18.21
2019-06-01T01:51:00.791Z,18.25
2019-06-01T01:55:09.517Z,18.20
2019-06-01T01:59:15.219Z,18.10
2019-06-01T02:03:20.968Z,18.01
2019-06-01T02:07:26.878Z,18.08
2019-06-01T02:11:32.579Z,18.06
2019-06-01T02:15:40.645Z,18.04
2019-06-01T02:19:46.389Z,18.01
2019-06-01T02:23:52.945Z,17.90
2019-06-01T02:27:59.270Z,17.81
2019-06-01T02:32:06.721Z,17.92
2019-06-01T02:36:12.559Z,17.98
2019-06-01T02:40:20.557Z,17.96
2019-06-01T02:44:26.371Z,17.94
2019-06-01T02:48:32.059Z,17.92
2019-06-01T02:52:38.281Z,17.69
2019-06-01T02:56:44.978Z,17.51
2019-06-01T03:01:16.282Z,17.54
2019-06-01T03:05:22.575Z,17.63
2019-06-01T03:09:32.193Z,17.74
2019-06-01T03:13:42.360Z,17.76
2019-06-01T03:17:49.454Z,17.68
2019-06-01T03:21:59.793Z,17.63
2019-06-01T03:26:09.514Z,17.57
2019-06-01T03:30:18.686Z,17.49
2019-06-01T03:34:24.403Z,17.49
2019-06-01T03:38:30.398Z,17.52
2019-06-01T03:42:36.213Z,17.54
2019-06-01T03:46:41.901Z,17.60
2019-06-01T03:50:47.731Z,17.60
2019-06-01T03:54:53.426Z,17.57
2019-06-01T03:58:59.099Z,17.58
2019-06-01T04:03:05.065Z,17.56
2019-06-01T04:07:12.467Z,17.45
2019-06-01T04:11:18.242Z,17.39
2019-06-01T04:15:23.926Z,17.47
2019-06-01T04:19:29.682Z,17.59
2019-06-01T04:23:36.436Z,17.71
2019-06-01T04:27:42.316Z,17.76
2019-06-01T04:31:48.523Z,17.80
2019-06-01T04:35:54.230Z,17.93
2019-06-01T04:39:59.884Z,18.00
2019-06-01T04:44:07.846Z,18.06
2019-06-01T04:48:14.686Z,18.12
2019-06-01T04:52:20.726Z,18.19
2019-06-01T04:56:26.404Z,18.27
2019-06-01T05:00:32.347Z,18.36
2019-06-01T05:04:38.022Z,18.45
2019-06-01T05:08:43.804Z,18.53
2019-06-01T05:12:49.632Z,18.62
2019-06-01T05:16:55.384Z,18.64
2019-06-01T05:21:01.183Z,18.70
2019-06-01T05:25:09.028Z,18.78
2019-06-01T05:29:15.690Z,18.88
2019-06-01T05:33:36.546Z,18.93
2019-06-01T05:37:29.081Z,18.97
2019-06-01T05:41:34.749Z,18.99
2019-06-01T05:45:40.473Z,19.08
2019-06-01T05:49:46.144Z,19.25
2019-06-01T05:53:51.993Z,19.39
2019-06-01T05:57:57.682Z,19.50
2019-06-01T06:02:03.350Z,19.64
2019-06-01T06:06:09.220Z,19.78
2019-06-01T06:10:16.023Z,19.89
2019-06-01T06:14:22.558Z,19.98
2019-06-01T06:18:28.342Z,20.10
2019-06-01T06:22:34.162Z,20.24
2019-06-01T06:26:39.854Z,20.39
2019-06-01T06:30:45.542Z,20.54
2019-06-01T06:34:51.213Z,20.70
2019-06-01T06:38:56.907Z,20.89
2019-06-01T06:43:02.595Z,21.02
2019-06-01T06:47:08.417Z,21.23
2019-06-01T06:52:09.045Z,21.44
2019-06-01T06:56:15.689Z,21.64
2019-06-01T07:00:22.660Z,21.99
2019-06-01T07:04:28.738Z,22.25
2019-06-01T07:08:34.504Z,22.41
2019-06-01T07:12:40.176Z,22.72
2019-06-01T07:16:45.899Z,22.99
2019-06-01T07:20:51.614Z,23.22
2019-06-01T07:24:57.329Z,23.56
2019-06-01T07:29:03.007Z,23.71
2019-06-01T07:33:09.790Z,24.13
2019-06-01T07:37:15.580Z,24.45
2019-06-01T07:41:22.463Z,24.51
2019-06-01T07:45:29.038Z,24.90
2019-06-01T07:49:36.357Z,25.35
2019-06-01T07:53:42.068Z,25.83
2019-06-01T07:57:47.747Z,26.19
2019-06-01T08:01:53.554Z,26.46
2019-06-01T08:05:59.305Z,26.80
2019-06-01T08:10:07.202Z,26.89
2019-06-01T08:14:12.955Z,27.33
2019-06-01T08:18:18.633Z,27.66
2019-06-01T08:22:24.318Z,28.04
2019-06-01T08:26:30.636Z,28.28
2019-06-01T08:30:36.417Z,28.59
2019-06-01T08:34:42.089Z,28.87
2019-06-01T08:38:48.363Z,29.11
2019-06-01T08:42:54.090Z,29.16
2019-06-01T08:46:59.950Z,29.43
2019-06-01T08:51:05.707Z,29.75
2019-06-01T08:55:12.080Z,29.85
2019-06-01T08:59:17.881Z,30.11
2019-06-01T09:03:23.600Z,30.51
2019-06-01T09:07:29.271Z,30.52
2019-06-01T09:11:35.377Z,31.00
2019-06-01T09:15:41.074Z,31.24
2019-06-01T09:19:46.785Z,31.48
2019-06-01T09:23:52.511Z,32.01
2019-06-01T09:27:58.281Z,32.35
2019-06-01T09:32:04.059Z,32.77
2019-06-01T09:36:09.819Z,33.05
2019-06-01T09:40:17.269Z,33.37
2019-06-01T09:44:22.973Z,33.61
2019-06-01T09:48:29.364Z,33.86
2019-06-01T09:52:35.596Z,34.04
2019-06-01T09:56:41.429Z,34.31
2019-06-01T10:00:48.713Z,34.40
2019-06-01T10:04:54.595Z,34.62
2019-06-01T10:09:00.266Z,34.63
2019-06-01T10:13:07.912Z,35.04
2019-06-01T10:17:13.673Z,35.60
2019-06-01T10:21:19.424Z,35.95
2019-06-01T10:25:27.801Z,36.00
2019-06-01T10:29:34.603Z,36.05
2019-06-01T10:33:40.372Z,35.82
2019-06-01T10:37:46.134Z,36.17
2019-06-01T10:41:51.826Z,36.40
2019-06-01T10:45:57.525Z,36.34
2019-06-01T10:50:04.367Z,36.91
2019-06-01T10:54:10.087Z,36.96
2019-06-01T10:58:16.042Z,37.58
2019-06-01T11:02:21.761Z,37.47
2019-06-01T11:06:36.661Z,37.85
2019-06-01T11:10:36.890Z,38.45
2019-06-01T11:14:43.329Z,38.65
2019-06-01T11:18:49.100Z,38.08
2019-06-01T11:22:54.941Z,37.12
2019-06-01T11:27:00.672Z,37.12
2019-06-01T11:31:07.067Z,37.86
2019-06-01T11:35:13.870Z,38.42
2019-06-01T11:39:19.673Z,38.45
2019-06-01T11:43:26.324Z,38.05
2019-06-01T11:47:32.078Z,37.91
2019-06-01T11:51:39.402Z,38.90
2019-06-01T11:55:45.573Z,39.51
2019-06-01T11:59:51.351Z,39.33
2019-06-01T12:03:57.169Z,38.29
2019-06-01T12:08:02.928Z,38.56
2019-06-01T12:12:08.647Z,39.00
2019-06-01T12:16:14.481Z,39.53
2019-06-01T12:20:21.075Z,39.18
2019-06-01T12:24:26.924Z,39.12
2019-06-01T12:28:32.783Z,39.16
2019-06-01T12:32:39.735Z,39.69
2019-06-01T12:36:46.429Z,39.86
2019-06-01T12:40:52.231Z,40.14
2019-06-01T12:44:58.103Z,39.76
2019-06-01T12:49:03.794Z,39.77
2019-06-01T12:53:09.471Z,39.46
2019-06-01T12:57:15.249Z,38.94
2019-06-01T13:01:21.055Z,38.96
2019-06-01T13:05:26.906Z,38.65
2019-06-01T13:09:33.591Z,38.72
2019-06-01T13:13:39.294Z,38.99
2019-06-01T13:17:45.330Z,38.70
2019-06-01T13:21:51.748Z,38.61
2019-06-01T13:25:57.482Z,38.49
2019-06-01T13:30:04.378Z,38.19
2019-06-01T13:34:10.069Z,36.12
2019-06-01T13:38:15.859Z,34.11
2019-06-01T13:42:21.497Z,33.56
2019-06-01T13:46:27.272Z,33.12
2019-06-01T13:50:32.961Z,35.33
2019-06-01T13:54:40.206Z,36.15
2019-06-01T13:58:46.324Z,36.70
2019-06-01T14:02:55.519Z,37.18
2019-06-01T14:06:59.592Z,35.18
2019-06-01T14:11:08.498Z,35.35
2019-06-01T14:15:15.092Z,34.79
2019-06-01T14:19:21.606Z,35.79
2019-06-01T14:23:27.349Z,36.38
2019-06-01T14:31:38.791Z,34.72
2019-06-01T14:35:44.725Z,34.05
2019-06-01T14:39:50.859Z,34.30
2019-06-01T14:43:57.780Z,34.58
2019-06-01T14:48:03.488Z,34.41
2019-06-01T14:52:09.208Z,34.33
2019-06-01T14:56:14.884Z,34.00
2019-06-01T15:00:22.202Z,34.20
2019-06-01T15:04:28.028Z,33.82
2019-06-01T15:08:33.710Z,33.93
2019-06-01T15:12:39.637Z,34.11
2019-06-01T15:16:46.362Z,34.03
2019-06-01T15:20:52.071Z,33.87
2019-06-01T15:24:58.748Z,33.54
2019-06-01T15:29:04.897Z,33.19
2019-06-01T15:33:10.603Z,32.66
2019-06-01T15:37:16.302Z,32.05
2019-06-01T15:41:22.074Z,31.81
2019-06-01T15:45:27.839Z,31.43
2019-06-01T15:49:33.548Z,31.08
2019-06-01T15:53:39.314Z,31.07
2019-06-01T15:57:45.083Z,31.01
2019-06-01T16:01:50.852Z,30.86
2019-06-01T16:05:57.062Z,30.65
2019-06-01T16:10:06.565Z,30.49
2019-06-01T16:14:10.605Z,30.26
2019-06-01T16:18:17.908Z,30.08
2019-06-01T16:22:23.539Z,29.90
2019-06-01T16:26:29.279Z,29.73
2019-06-01T16:30:34.957Z,29.70
2019-06-01T16:34:40.788Z,29.71
2019-06-01T16:38:46.471Z,29.67
2019-06-01T16:42:52.163Z,29.58
2019-06-01T16:46:57.944Z,29.51
2019-06-01T16:51:04.157Z,29.48
2019-06-01T16:55:11.761Z,29.46
2019-06-01T16:59:17.665Z,29.48
2019-06-01T17:03:23.428Z,29.40
2019-06-01T17:07:29.138Z,29.37
2019-06-01T17:11:34.824Z,29.28
2019-06-01T17:15:40.751Z,29.20
2019-06-01T17:19:47.615Z,29.08
2019-06-01T17:23:53.462Z,29.05
2019-06-01T17:28:00.118Z,28.99
2019-06-01T17:32:21.540Z,28.89
2019-06-01T17:40:36.762Z,28.74
2019-06-01T17:44:31.798Z,28.62
2019-06-01T17:48:37.779Z,28.50
2019-06-01T17:52:43.896Z,28.36
2019-06-01T17:56:49.674Z,28.25
2019-06-01T18:00:56.537Z,28.13
2019-06-01T18:05:03.948Z,28.05
2019-06-01T18:09:12.150Z,27.89
2019-06-01T18:13:17.933Z,27.74
2019-06-01T18:17:23.840Z,27.75
2019-06-01T18:21:33.362Z,27.70
2019-06-01T18:25:37.030Z,27.60
2019-06-01T18:29:48.451Z,27.44
2019-06-01T18:33:53.523Z,27.37
2019-06-01T18:37:59.470Z,27.27
2019-06-01T18:42:06.283Z,27.15
2019-06-01T18:46:12.253Z,27.02
2019-06-01T18:50:19.290Z,26.89
2019-06-01T18:54:25.110Z,26.77
2019-06-01T18:58:30.826Z,26.53
2019-06-01T19:02:36.735Z,26.36
2019-06-01T19:06:42.572Z,26.30
2019-06-01T19:10:49.343Z,26.10
2019-06-01T19:14:55.454Z,25.84
2019-06-01T19:19:01.203Z,25.76
2019-06-01T19:23:07.061Z,25.78
2019-06-01T19:27:12.899Z,25.74
2019-06-01T19:31:18.761Z,25.68
2019-06-01T19:35:24.505Z,25.59
2019-06-01T19:39:32.668Z,25.51
2019-06-01T19:43:38.417Z,25.30
2019-06-01T19:47:44.241Z,25.15
2019-06-01T19:51:49.941Z,25.20
2019-06-01T19:55:55.620Z,25.20
2019-06-01T20:00:01.300Z,25.11
2019-06-01T20:04:07.208Z,25.01
2019-06-01T20:08:14.212Z,24.89
2019-06-01T20:12:20.584Z,24.79
2019-06-01T20:16:26.554Z,24.71
2019-06-01T20:20:32.209Z,24.63
2019-06-01T20:24:38.002Z,24.56
2019-06-01T20:28:43.758Z,24.59
2019-06-01T20:32:49.456Z,24.54
2019-06-01T20:36:55.147Z,24.46
2019-06-01T20:41:00.849Z,24.34
2019-06-01T20:45:10.605Z,24.21
2019-06-01T20:49:16.835Z,23.91
2019-06-01T20:53:23.263Z,23.96
2019-06-01T20:57:29.066Z,23.96
2019-06-01T21:01:34.781Z,23.96
2019-06-01T21:05:40.990Z,24.04
2019-06-01T21:09:47.306Z,23.81
2019-06-01T21:13:54.064Z,23.66
2019-06-01T21:17:59.760Z,23.80
2019-06-01T21:22:06.121Z,23.95
2019-06-01T21:26:11.846Z,23.89
2019-06-01T21:30:18.803Z,23.81
2019-06-01T21:34:25.590Z,23.61
2019-06-01T21:38:31.372Z,23.54
2019-06-01T21:42:38.496Z,23.41
2019-06-01T21:46:44.753Z,23.22
2019-06-01T21:50:50.705Z,23.32
2019-06-01T21:54:56.420Z,23.31
2019-06-01T21:59:03.134Z,23.26
2019-06-01T22:03:09.473Z,23.18
2019-06-01T22:07:15.276Z,23.15
2019-06-01T22:11:21.554Z,23.20
2019-06-01T22:15:28.034Z,23.17
2019-06-01T22:19:33.825Z,23.12
2019-06-01T22:23:39.545Z,23.04
2019-06-01T22:27:45.331Z,23.01
2019-06-01T22:31:51.055Z,22.98
2019-06-01T22:35:56.750Z,22.84
2019-06-01T22:40:02.824Z,22.72
2019-06-01T22:44:08.856Z,22.67
2019-06-01T22:48:14.693Z,22.63
2019-06-01T22:52:20.969Z,22.60
2019-06-01T22:56:27.915Z,22.57
2019-06-01T23:00:33.709Z,22.51
2019-06-01T23:04:39.484Z,22.43
2019-06-01T23:08:45.452Z,22.33
2019-06-01T23:12:51.214Z,22.31
2019-06-01T23:16:56.917Z,22.29
2019-06-01T23:21:02.633Z,22.26
2019-06-01T23:25:09.214Z,22.14
2019-06-01T23:29:14.961Z,22.10
2019-06-01T23:33:20.696Z,22.15
2019-06-01T23:37:26.734Z,22.11
2019-06-01T23:41:32.982Z,22.03
2019-06-01T23:45:39.834Z,22.08
2019-06-01T23:49:45.620Z,22.10
2019-06-01T23:53:51.488Z,22.03
2019-06-01T23:57:57.202Z,21.99
